Time;durP1;ratioP1;P1;durP2;ratioP2;P2;SDS_P1;SDS_P2;PMS_P1;PMS_P2;Temp;Humidity;BMP_temperature;BMP_pressure;BME280_temperature;BME280_humidity;BME280_pressure;Samples;Min_cycle;Max_cycle;Signal;HPM_P1;HPM_P2
2022/03/15 00:00:23;;;;;;;9.40;8.07;;;;;;;7.40;99.97;96728.22;6299545;22;20347;-60
2022/03/15 00:02:49;;;;;;;7.30;6.57;;;;;;;7.41;99.12;96726.44;6300587;22;20380;-60
2022/03/15 00:05:16;;;;;;;7.88;7.00;;;;;;;7.40;98.82;96725.59;6299730;22;20026;-60
2022/03/15 00:07:42;;;;;;;8.05;6.95;;;;;;;7.34;100.00;96720.75;6299313;22;20020;-60
2022/03/15 00:10:08;;;;;;;8.15;7.00;;;;;;;7.27;100.00;96727.31;6300072;22;20824;-60
2022/03/15 00:12:34;;;;;;;10.98;8.13;;;;;;;7.22;100.00;96730.22;6298891;22;20007;-61
2022/03/15 00:15:00;;;;;;;9.00;7.72;;;;;;;7.22;100.00;96724.16;6299548;22;20010;-60
2022/03/15 00:17:27;;;;;;;10.95;9.13;;;;;;;7.22;100.00;96721.53;6299634;22;20443;-60
2022/03/15 00:19:53;;;;;;;11.82;9.95;;;;;;;7.22;100.00;96718.91;6299084;22;20583;-60
2022/03/15 00:22:18;;;;;;;8.88;7.45;;;;;;;7.43;99.09;96712.31;6299771;22;20003;-60
2022/03/15 00:24:43;;;;;;;5.55;4.97;;;;;;;7.36;98.33;96705.75;6299533;22;20064;-60
2022/03/15 00:27:12;;;;;;;26.50;12.75;;;;;;;7.35;98.69;96703.25;6299165;22;20347;-59
2022/03/15 00:29:39;;;;;;;23.80;13.27;;;;;;;7.21;100.00;96704.13;6299507;22;20036;-60
2022/03/15 00:32:06;;;;;;;19.00;12.23;;;;;;;7.13;100.00;96705.44;6300015;22;20007;-60
2022/03/15 00:34:31;;;;;;;24.85;14.50;;;;;;;7.17;100.00;96699.06;6299948;22;20003;-60
2022/03/15 00:36:57;;;;;;;17.30;12.05;;;;;;;7.14;100.00;96691.41;6299556;22;20004;-60
2022/03/15 00:39:22;;;;;;;17.83;12.27;;;;;;;7.08;100.00;96685.72;6299656;22;20007;-59
2022/03/15 00:41:48;;;;;;;6.75;6.05;;;;;;;7.01;100.00;96700.97;6299378;22;20044;-60
2022/03/15 00:44:13;;;;;;;7.95;7.28;;;;;;;7.07;100.00;96689.25;6299747;22;20462;-60
2022/03/15 00:46:38;;;;;;;6.93;6.20;;;;;;;7.20;100.00;96702.44;6299376;22;20059;-60
2022/03/15 00:49:04;;;;;;;7.53;6.82;;;;;;;7.09;100.00;96703.94;6299006;22;20003;-60
2022/03/15 00:51:29;;;;;;;7.18;6.47;;;;;;;7.01;100.00;96707.03;6299689;22;20099;-60
2022/03/15 00:53:55;;;;;;;13.45;8.77;;;;;;;6.99;100.00;96705.47;6299226;22;19999;-60
2022/03/15 00:56:20;;;;;;;12.48;8.77;;;;;;;7.16;100.00;96704.41;6299625;22;20087;-60
2022/03/15 00:58:45;;;;;;;15.90;11.25;;;;;;;7.21;100.00;96714.59;6299503;22;20091;-59
2022/03/15 01:01:11;;;;;;;12.23;8.98;;;;;;;7.15;100.00;96710.59;6299707;22;20430;-60
2022/03/15 01:03:36;;;;;;;7.97;7.18;;;;;;;7.16;100.00;96707.84;6299300;22;20350;-60
2022/03/15 01:06:02;;;;;;;8.27;6.97;;;;;;;7.17;100.00;96712.16;6299528;22;20447;-60
2022/03/15 01:08:27;;;;;;;6.82;5.80;;;;;;;7.21;100.00;96717.22;6298861;22;20011;-60
2022/03/15 01:10:53;;;;;;;7.60;4.82;;;;;;;7.24;100.00;96717.03;6272078;22;20011;-60
2022/03/15 01:13:18;;;;;;;5.60;5.00;;;;;;;7.34;99.54;96715.50;6299788;22;20004;-60
2022/03/15 01:15:44;;;;;;;7.95;6.60;;;;;;;7.32;99.96;96709.53;6299071;22;20442;-60
2022/03/15 01:18:13;;;;;;;6.40;5.72;;;;;;;7.29;100.00;96721.06;6299233;22;20007;-60
2022/03/15 01:20:41;;;;;;;9.75;8.13;;;;;;;7.27;100.00;96722.91;6299044;22;20003;-59
2022/03/15 01:23:06;;;;;;;10.13;6.15;;;;;;;7.30;100.00;96721.88;6299489;22;20010;-61
2022/03/15 01:25:32;;;;;;;7.28;6.28;;;;;;;7.29;100.00;96728.91;6299030;22;20048;-60
2022/03/15 01:27:58;;;;;;;6.15;5.65;;;;;;;7.25;100.00;96724.78;6299133;22;20099;-60
2022/03/15 01:30:24;;;;;;;7.28;6.25;;;;;;;7.22;100.00;96718.91;6299433;22;20047;-60
2022/03/15 01:32:50;;;;;;;9.57;6.88;;;;;;;7.21;100.00;96722.47;6299374;22;20010;-60
2022/03/15 01:35:15;;;;;;;7.40;6.30;;;;;;;7.23;100.00;96721.41;6298876;22;20011;-60
2022/03/15 01:37:40;;;;;;;6.88;6.18;;;;;;;7.27;100.00;96722.06;6299493;22;20343;-60
2022/03/15 01:40:06;;;;;;;10.55;6.40;;;;;;;7.29;100.00;96714.97;6300300;22;20128;-60
2022/03/15 01:42:32;;;;;;;6.18;5.47;;;;;;;7.33;100.00;96711.19;6273465;22;20011;-60
2022/03/15 01:45:02;;;;;;;6.85;6.15;;;;;;;7.30;100.00;96716.63;6300215;22;20389;-60
2022/03/15 01:47:27;;;;;;;8.40;7.40;;;;;;;7.30;100.00;96700.91;6273090;22;20384;-61
2022/03/15 01:49:53;;;;;;;9.65;7.03;;;;;;;7.37;100.00;96706.63;6300052;22;20055;-60
2022/03/15 01:52:19;;;;;;;7.78;5.85;;;;;;;7.29;100.00;96709.72;6300530;22;20026;-60
2022/03/15 01:54:44;;;;;;;7.63;6.53;;;;;;;7.24;100.00;96719.66;6299988;22;20003;-60
2022/03/15 01:57:10;;;;;;;16.30;11.70;;;;;;;7.21;100.00;96712.00;6300227;22;20460;-59
2022/03/15 01:59:36;;;;;;;8.13;7.20;;;;;;;7.21;100.00;96723.28;6300670;22;20072;-60
2022/03/15 02:02:03;;;;;;;6.45;4.45;;;;;;;7.17;100.00;96724.44;6300331;22;20003;-60
2022/03/15 02:04:28;;;;;;;4.97;4.40;;;;;;;7.12;100.00;96743.03;6300167;22;20085;-60
2022/03/15 02:07:06;;;;;;;12.63;6.82;;;;;;;7.10;100.00;96744.91;6272874;22;20046;-60
2022/03/15 02:09:32;;;;;;;6.80;5.85;;;;;;;7.06;100.00;96748.66;6300398;22;20007;-60
2022/03/15 02:11:58;;;;;;;10.13;6.78;;;;;;;7.06;100.00;96742.56;6272606;22;20019;-60
2022/03/15 02:14:25;;;;;;;6.43;5.75;;;;;;;7.10;100.00;96752.75;6300349;22;20450;-60
2022/03/15 02:16:50;;;;;;;6.57;5.68;;;;;;;7.07;100.00;96737.25;6299887;22;20052;-60
2022/03/15 02:19:16;;;;;;;7.32;5.95;;;;;;;7.09;100.00;96740.59;6300485;22;20003;-60
2022/03/15 02:21:41;;;;;;;7.03;5.07;;;;;;;7.14;100.00;96742.94;6300205;22;20004;-60
2022/03/15 02:24:07;;;;;;;6.80;6.20;;;;;;;7.15;100.00;96742.00;6300591;22;20007;-60
2022/03/15 02:26:32;;;;;;;7.05;5.15;;;;;;;7.11;100.00;96738.72;6300111;22;20018;-60
2022/03/15 02:28:58;;;;;;;6.22;5.45;;;;;;;7.10;100.00;96747.53;6300098;22;20011;-61
2022/03/15 02:31:24;;;;;;;6.88;5.25;;;;;;;7.28;100.00;96742.91;6300286;22;20010;-60
2022/03/15 02:33:49;;;;;;;4.47;4.07;;;;;;;7.22;100.00;96756.41;6300152;22;20078;-60
2022/03/15 02:36:15;;;;;;;6.50;5.45;;;;;;;7.19;100.00;96753.16;6300038;22;20035;-60
2022/03/15 02:38:41;;;;;;;8.10;5.75;;;;;;;7.17;100.00;96751.44;6299814;22;20030;-60
2022/03/15 02:41:06;;;;;;;5.68;4.93;;;;;;;7.06;100.00;96755.66;6300303;22;19995;-60
2022/03/15 02:43:32;;;;;;;5.50;5.07;;;;;;;6.99;100.00;96756.03;6300234;22;20015;-60
2022/03/15 02:45:57;;;;;;;5.40;4.90;;;;;;;7.00;100.00;96752.47;6299936;22;19995;-60
2022/03/15 02:48:23;;;;;;;4.55;4.15;;;;;;;7.03;100.00;96741.81;6299637;22;20003;-60
2022/03/15 02:50:48;;;;;;;4.32;3.90;;;;;;;7.03;100.00;96749.69;6300368;22;20132;-60
2022/03/15 02:53:14;;;;;;;4.18;3.78;;;;;;;7.01;100.00;96751.53;6300498;22;20074;-60
2022/03/15 02:55:39;;;;;;;4.97;4.10;;;;;;;7.00;100.00;96739.38;6300572;22;20056;-60
2022/03/15 02:58:05;;;;;;;8.57;4.03;;;;;;;7.06;100.00;96737.31;6300246;22;20495;-60
2022/03/15 03:00:30;;;;;;;4.18;3.88;;;;;;;7.03;100.00;96738.38;6300391;22;20063;-61
2022/03/15 03:02:56;;;;;;;5.05;4.38;;;;;;;7.01;100.00;96737.63;6300637;22;20007;-60
2022/03/15 03:05:22;;;;;;;4.70;4.10;;;;;;;6.97;100.00;96725.66;6300305;22;20015;-60
2022/03/15 03:07:48;;;;;;;7.93;7.05;;;;;;;6.96;100.00;96729.19;6300009;22;20019;-61
2022/03/15 03:10:16;;;;;;;10.15;8.15;;;;;;;6.98;100.00;96733.41;6300303;22;20016;-60
2022/03/15 03:12:42;;;;;;;9.93;5.43;;;;;;;6.95;100.00;96738.84;6300174;22;20007;-61
2022/03/15 03:15:12;;;;;;;5.25;4.75;;;;;;;6.97;100.00;96742.19;6273085;22;20038;-60
2022/03/15 03:17:40;;;;;;;4.43;3.80;;;;;;;6.90;100.00;96740.91;6299926;22;20049;-60
2022/03/15 03:20:09;;;;;;;4.35;3.63;;;;;;;6.90;100.00;96747.91;6299420;22;20099;-60
2022/03/15 03:22:36;;;;;;;4.60;4.20;;;;;;;6.87;100.00;96752.38;6300978;22;20014;-60
2022/03/15 03:25:04;;;;;;;4.65;4.10;;;;;;;6.82;100.00;96758.84;6300385;22;20003;-60
2022/03/15 03:27:29;;;;;;;4.15;3.75;;;;;;;6.81;100.00;96760.63;6300097;22;20027;-60
2022/03/15 03:29:58;;;;;;;5.68;4.53;;;;;;;6.82;100.00;96764.91;6300371;22;20011;-60
2022/03/15 03:32:25;;;;;;;4.55;3.80;;;;;;;6.86;100.00;96770.81;6300298;22;20421;-61
2022/03/15 03:34:52;;;;;;;4.07;3.67;;;;;;;6.91;100.00;96762.66;6300189;22;20030;-59
2022/03/15 03:37:17;;;;;;;4.00;3.70;;;;;;;6.96;100.00;96774.56;6299974;22;20064;-60
2022/03/15 03:39:43;;;;;;;4.20;3.90;;;;;;;6.96;100.00;96774.56;6300201;22;20419;-60
2022/03/15 03:42:09;;;;;;;3.90;3.60;;;;;;;6.99;100.00;96768.31;6300003;22;20021;-60
2022/03/15 03:44:36;;;;;;;3.60;3.30;;;;;;;7.00;100.00;96773.44;6300470;22;20008;-61
2022/03/15 03:47:02;;;;;;;4.00;3.55;;;;;;;6.96;100.00;96773.69;6300100;22;19995;-60
2022/03/15 03:49:29;;;;;;;4.28;3.85;;;;;;;6.95;100.00;96777.25;6299925;22;20010;-60
2022/03/15 03:51:55;;;;;;;5.03;3.90;;;;;;;6.94;100.00;96775.56;6300087;22;20469;-60
2022/03/15 03:54:21;;;;;;;3.50;3.30;;;;;;;6.91;100.00;96768.75;6300433;22;20004;-60
2022/03/15 03:56:46;;;;;;;3.92;3.63;;;;;;;6.87;100.00;96778.56;6300199;22;20458;-59
2022/03/15 03:59:12;;;;;;;6.60;3.85;;;;;;;6.86;100.00;96762.97;6299835;22;20017;-60
2022/03/15 04:01:39;;;;;;;4.88;3.70;;;;;;;6.91;100.00;96760.06;6299794;22;20051;-60
2022/03/15 04:04:05;;;;;;;4.00;3.58;;;;;;;6.83;100.00;96766.59;6300007;22;20489;-60
2022/03/15 04:06:32;;;;;;;4.07;3.78;;;;;;;6.84;100.00;96767.44;6299835;22;20011;-60
2022/03/15 04:08:59;;;;;;;4.13;3.83;;;;;;;6.82;100.00;96772.78;6299885;22;20003;-60
2022/03/15 04:11:25;;;;;;;5.15;3.70;;;;;;;6.73;100.00;96766.31;6300166;22;20055;-60
2022/03/15 04:13:51;;;;;;;4.95;3.60;;;;;;;6.73;100.00;96753.22;6272931;22;20388;-60
2022/03/15 04:16:17;;;;;;;4.13;3.42;;;;;;;6.75;100.00;96755.75;6300127;22;20003;-60
2022/03/15 04:18:43;;;;;;;3.83;3.53;;;;;;;6.81;100.00;96765.00;6300016;22;20063;-60
2022/03/15 04:21:08;;;;;;;3.50;3.20;;;;;;;6.82;100.00;96762.31;6299299;22;20003;-60
2022/03/15 04:23:34;;;;;;;4.00;3.70;;;;;;;6.83;100.00;96755.28;6299843;22;20010;-60
2022/03/15 04:26:00;;;;;;;3.90;3.60;;;;;;;6.79;100.00;96759.03;6299738;22;20032;-60
2022/03/15 04:28:26;;;;;;;4.28;3.78;;;;;;;6.81;100.00;96760.63;6299819;22;20120;-60
2022/03/15 04:30:51;;;;;;;4.13;3.83;;;;;;;6.79;100.00;96762.50;6300319;22;20039;-60
2022/03/15 04:33:17;;;;;;;4.18;3.80;;;;;;;6.78;100.00;96759.97;6299704;22;19999;-60
2022/03/15 04:35:42;;;;;;;4.95;4.25;;;;;;;6.76;100.00;96751.34;6299825;22;20027;-60
2022/03/15 04:38:07;;;;;;;5.00;4.53;;;;;;;6.79;100.00;96754.63;6300161;22;20011;-60
2022/03/15 04:40:33;;;;;;;4.70;4.32;;;;;;;6.84;100.00;96742.09;6299778;22;20027;-60
2022/03/15 04:42:59;;;;;;;5.95;4.38;;;;;;;6.86;100.00;96745.47;6299312;22;20007;-60
2022/03/15 04:45:24;;;;;;;4.72;3.75;;;;;;;6.88;100.00;96750.63;6299379;22;20003;-60
2022/03/15 04:47:50;;;;;;;4.32;3.97;;;;;;;6.90;100.00;96750.53;6299368;22;20432;-60
2022/03/15 04:50:17;;;;;;;4.68;4.28;;;;;;;6.91;100.00;96733.88;6299752;22;20008;-60
2022/03/15 04:52:42;;;;;;;5.22;4.18;;;;;;;6.93;100.00;96742.47;6299847;22;20465;-61
2022/03/15 04:55:08;;;;;;;3.97;3.67;;;;;;;6.87;100.00;96757.63;6272340;22;20004;-61
2022/03/15 04:57:34;;;;;;;4.53;4.13;;;;;;;6.82;100.00;96741.38;6272410;22;20503;-61
2022/03/15 04:59:59;;;;;;;4.00;3.70;;;;;;;6.84;100.00;96742.09;6299718;22;20007;-61
2022/03/15 05:02:26;;;;;;;4.10;3.58;;;;;;;6.86;100.00;96742.84;6299984;22;20007;-59
2022/03/15 05:04:52;;;;;;;4.72;4.30;;;;;;;6.88;100.00;96745.41;6299749;22;20003;-62
2022/03/15 05:07:17;;;;;;;4.18;3.85;;;;;;;6.83;100.00;96743.03;6299028;22;20497;-61
2022/03/15 05:12:27;;;;;;;5.00;3.95;;;;;;;6.78;100.00;96732.03;6298883;22;20018;-61
2022/03/15 05:14:52;;;;;;;4.40;4.00;;;;;;;6.82;100.00;96728.28;6299605;22;20029;-61
2022/03/15 05:17:19;;;;;;;4.47;4.07;;;;;;;6.80;100.00;96727.53;6299149;22;20003;-61
2022/03/15 05:19:47;;;;;;;3.97;3.70;;;;;;;6.79;100.00;96714.53;6299347;22;20011;-62
2022/03/15 05:22:13;;;;;;;3.90;3.60;;;;;;;6.77;100.00;96698.06;6272218;22;20003;-61
2022/03/15 05:24:38;;;;;;;4.47;4.07;;;;;;;6.74;100.00;96704.31;6299947;22;20003;-61
2022/03/15 05:27:04;;;;;;;3.30;3.00;;;;;;;6.73;100.00;96708.72;6298641;22;20079;-61
2022/03/15 05:29:29;;;;;;;3.72;3.28;;;;;;;6.70;100.00;96714.16;6299323;22;20003;-61
2022/03/15 05:31:55;;;;;;;3.33;3.13;;;;;;;6.66;100.00;96704.81;6299542;22;20435;-61
2022/03/15 05:34:20;;;;;;;3.70;2.88;;;;;;;6.63;100.00;96709.38;6299835;22;20082;-62
2022/03/15 05:36:48;;;;;;;3.83;3.47;;;;;;;6.61;100.00;96708.63;6299630;22;20454;-61
2022/03/15 05:39:14;;;;;;;4.43;3.97;;;;;;;6.61;100.00;96719.94;6298836;22;20112;-61
2022/03/15 05:41:41;;;;;;;4.45;3.85;;;;;;;6.86;100.00;96708.00;6299586;22;20031;-62
2022/03/15 05:44:07;;;;;;;3.42;3.22;;;;;;;6.73;100.00;96705.25;6299198;22;20027;-62
2022/03/15 05:46:32;;;;;;;4.22;3.92;;;;;;;6.69;100.00;96701.16;6299636;22;20453;-62
2022/03/15 05:48:58;;;;;;;5.15;4.13;;;;;;;6.64;100.00;96692.75;6299182;22;20028;-61
2022/03/15 05:51:23;;;;;;;3.80;3.50;;;;;;;6.85;100.00;96699.28;6299928;22;20048;-61
2022/03/15 05:53:49;;;;;;;4.10;3.75;;;;;;;6.76;100.00;96691.16;6299320;22;20003;-61
2022/03/15 05:56:14;;;;;;;5.07;3.60;;;;;;;6.75;100.00;96692.94;6299114;22;20185;-62
2022/03/15 05:58:40;;;;;;;4.53;3.95;;;;;;;6.72;100.00;96700.97;6299434;22;20011;-62
2022/03/15 06:01:05;;;;;;;5.65;5.15;;;;;;;6.70;100.00;96690.59;6298752;22;19999;-62
2022/03/15 06:03:31;;;;;;;6.70;6.10;;;;;;;6.79;100.00;96694.44;6299056;22;20091;-61
2022/03/15 06:05:56;;;;;;;6.35;5.63;;;;;;;6.76;100.00;96694.63;6299402;22;20010;-61
2022/03/15 06:08:21;;;;;;;6.50;5.60;;;;;;;6.66;100.00;96685.63;6298807;22;20015;-61
2022/03/15 06:10:47;;;;;;;9.02;7.13;;;;;;;6.63;100.00;96683.22;6299160;22;20385;-62
2022/03/15 06:13:12;;;;;;;5.63;5.13;;;;;;;6.67;100.00;96687.31;6298817;22;20003;-61
2022/03/15 06:15:38;;;;;;;5.15;4.75;;;;;;;6.67;100.00;96682.09;6298395;22;20070;-61
2022/03/15 06:18:05;;;;;;;4.32;4.03;;;;;;;6.66;100.00;96691.72;6299115;22;20075;-61
2022/03/15 06:20:30;;;;;;;6.28;5.10;;;;;;;6.71;100.00;96692.28;6299479;22;20026;-62
2022/03/15 06:22:56;;;;;;;5.22;4.82;;;;;;;6.66;100.00;96678.66;6299121;22;20444;-62
2022/03/15 06:25:22;;;;;;;5.38;4.88;;;;;;;6.67;100.00;96698.66;6300273;22;20003;-61
2022/03/15 06:27:49;;;;;;;19.90;17.80;;;;;;;6.70;100.00;96697.59;6300391;22;20014;-61
2022/03/15 06:30:19;;;;;;;16.00;14.40;;;;;;;6.70;100.00;96687.13;6299650;22;20011;-62
2022/03/15 06:32:45;;;;;;;10.85;9.18;;;;;;;6.73;100.00;96693.03;6300396;22;20007;-62
2022/03/15 06:35:13;;;;;;;10.52;8.32;;;;;;;6.81;100.00;96694.31;6299980;22;19999;-61
2022/03/15 06:37:43;;;;;;;8.32;7.40;;;;;;;6.86;100.00;96700.97;6300350;22;20010;-63
2022/03/15 06:40:09;;;;;;;8.88;8.07;;;;;;;6.88;100.00;96703.50;6300081;22;19999;-62
2022/03/15 06:42:38;;;;;;;11.80;7.45;;;;;;;7.00;100.00;96691.44;6298378;22;20011;-63
2022/03/15 06:45:04;;;;;;;23.25;18.75;;;;;;;7.08;100.00;96685.72;6299251;22;20074;-62
2022/03/15 06:47:29;;;;;;;8.88;6.68;;;;;;;7.17;100.00;96691.19;6298624;22;20059;-62
2022/03/15 06:49:54;;;;;;;9.80;8.18;;;;;;;7.10;100.00;96689.91;6272598;22;20015;-68
2022/03/15 06:52:20;;;;;;;11.32;10.13;;;;;;;7.11;100.00;96672.44;6300294;22;20403;-64
2022/03/15 06:54:45;;;;;;;6.43;5.82;;;;;;;7.15;100.00;96685.22;6299494;22;20021;-63
2022/03/15 06:57:11;;;;;;;4.70;4.40;;;;;;;7.00;100.00;96678.34;6298290;22;20316;-63
2022/03/15 06:59:36;;;;;;;5.15;4.75;;;;;;;6.93;100.00;96675.25;6298754;22;20010;-62
2022/03/15 07:02:01;;;;;;;6.15;5.75;;;;;;;6.85;100.00;96691.44;6298734;22;20010;-62
2022/03/15 07:04:27;;;;;;;5.30;4.82;;;;;;;6.83;100.00;96685.47;6298692;22;20013;-61
2022/03/15 07:06:52;;;;;;;5.43;5.05;;;;;;;6.85;100.00;96677.50;6298805;22;20384;-61
2022/03/15 07:09:18;;;;;;;6.05;5.03;;;;;;;6.79;100.00;96673.50;6300248;22;20007;-61
2022/03/15 07:11:43;;;;;;;5.55;5.05;;;;;;;6.83;100.00;96675.00;6299196;22;20027;-61
2022/03/15 07:14:09;;;;;;;7.15;5.47;;;;;;;6.90;100.00;96679.84;6300089;22;20002;-61
2022/03/15 07:16:34;;;;;;;6.05;5.55;;;;;;;6.90;100.00;96682.44;6300429;22;20014;-61
2022/03/15 07:18:59;;;;;;;5.90;5.40;;;;;;;6.91;100.00;96684.13;6300595;22;20003;-61
2022/03/15 07:21:25;;;;;;;8.88;6.38;;;;;;;6.93;100.00;96682.25;6300273;22;20007;-62
2022/03/15 07:23:50;;;;;;;7.30;6.40;;;;;;;7.02;100.00;96686.94;6297639;22;19999;-62
2022/03/15 07:26:16;;;;;;;6.78;6.28;;;;;;;7.09;100.00;96693.47;6298872;22;20056;-62
2022/03/15 07:28:41;;;;;;;5.13;4.72;;;;;;;7.11;100.00;96696.00;6298027;22;20038;-60
2022/03/15 07:31:07;;;;;;;6.05;5.55;;;;;;;7.15;100.00;96694.88;6298325;22;20007;-62
2022/03/15 07:33:32;;;;;;;6.13;5.63;;;;;;;7.19;100.00;96700.78;6299616;22;20070;-61
2022/03/15 07:36:03;;;;;;;6.50;5.90;;;;;;;7.26;100.00;96696.81;6299908;22;20513;-61
2022/03/15 07:38:30;;;;;;;7.45;5.85;;;;;;;7.26;100.00;96694.19;6298929;22;20011;-60
2022/03/15 07:41:01;;;;;;;6.07;5.53;;;;;;;7.23;100.00;96694.41;6299211;22;20465;-60
2022/03/15 07:43:30;;;;;;;6.00;5.57;;;;;;;7.27;100.00;96675.75;6299592;22;20439;-60
2022/03/15 07:45:55;;;;;;;5.53;5.03;;;;;;;7.34;100.00;96678.81;6299515;22;20346;-60
2022/03/15 07:48:21;;;;;;;5.45;5.00;;;;;;;7.36;100.00;96682.19;6299128;22;19999;-60
2022/03/15 07:50:47;;;;;;;6.18;5.68;;;;;;;7.41;100.00;96679.28;6299839;22;20086;-61
2022/03/15 07:53:12;;;;;;;6.68;4.68;;;;;;;7.41;100.00;96687.13;6299477;22;20026;-60
2022/03/15 07:55:38;;;;;;;4.38;4.07;;;;;;;7.44;100.00;96671.22;6295971;22;20078;-61
2022/03/15 07:58:04;;;;;;;4.07;3.78;;;;;;;7.49;100.00;96695.34;6298835;22;20010;-61
2022/03/15 08:00:30;;;;;;;4.50;4.20;;;;;;;7.52;100.00;96684.69;6299776;22;20691;-61
2022/03/15 08:02:55;;;;;;;6.10;4.07;;;;;;;7.57;100.00;96681.75;6299609;22;20049;-60
2022/03/15 08:05:21;;;;;;;9.27;7.72;;;;;;;7.63;100.00;96696.25;6299039;22;20346;-60
2022/03/15 08:07:47;;;;;;;9.57;8.63;;;;;;;7.68;100.00;96683.69;6299412;22;20015;-60
2022/03/15 08:10:12;;;;;;;8.90;7.50;;;;;;;7.80;100.00;96682.91;6298712;22;20689;-61
2022/03/15 08:12:39;;;;;;;7.55;6.60;;;;;;;7.81;100.00;96691.59;6298281;22;20003;-60
2022/03/15 08:15:06;;;;;;;6.30;5.80;;;;;;;7.87;100.00;96678.91;6298763;22;20499;-60
2022/03/15 08:17:33;;;;;;;7.03;5.18;;;;;;;7.89;100.00;96676.22;6298314;22;20006;-61
2022/03/15 08:19:58;;;;;;;4.53;4.22;;;;;;;7.99;100.00;96679.06;6299221;22;20027;-61
2022/03/15 08:22:26;;;;;;;4.82;4.43;;;;;;;8.06;100.00;96672.47;6298126;22;20006;-60
2022/03/15 08:24:52;;;;;;;8.15;4.55;;;;;;;8.11;100.00;96665.13;6298382;22;20007;-60
2022/03/15 08:27:17;;;;;;;4.38;3.95;;;;;;;8.15;100.00;96686.75;6299442;22;20083;-61
2022/03/15 08:29:44;;;;;;;4.15;3.92;;;;;;;8.14;100.00;96685.06;6298939;22;20098;-60
2022/03/15 08:32:09;;;;;;;5.95;4.55;;;;;;;8.14;100.00;96674.56;6299090;22;20003;-60
2022/03/15 08:34:37;;;;;;;4.85;4.38;;;;;;;8.18;100.00;96681.28;6300195;22;20143;-60
2022/03/15 08:37:03;;;;;;;4.43;3.65;;;;;;;8.22;100.00;96677.50;6299116;22;20003;-60
2022/03/15 08:39:28;;;;;;;4.45;4.05;;;;;;;8.26;100.00;96673.75;6298877;22;20510;-60
2022/03/15 08:41:54;;;;;;;13.30;10.05;;;;;;;8.39;100.00;96652.75;6298987;22;20059;-60
2022/03/15 08:44:20;;;;;;;3.88;3.58;;;;;;;8.37;100.00;96648.56;6299110;22;20477;-60
2022/03/15 08:46:47;;;;;;;3.92;3.63;;;;;;;8.42;100.00;96651.72;6298561;22;20320;-61
2022/03/15 08:49:13;;;;;;;9.75;6.65;;;;;;;8.49;100.00;96646.88;6298804;22;20622;-60
2022/03/15 08:51:39;;;;;;;4.50;4.07;;;;;;;8.52;99.68;96646.72;6297483;22;20000;-60
2022/03/15 08:54:04;;;;;;;4.32;3.40;;;;;;;8.48;99.69;96643.41;6298914;22;19992;-60
2022/03/15 08:56:30;;;;;;;6.30;3.33;;;;;;;8.53;99.02;96641.38;6299174;22;20392;-60
2022/03/15 08:58:56;;;;;;;3.30;3.05;;;;;;;8.62;100.00;96620.66;6298318;22;20003;-60
2022/03/15 09:01:21;;;;;;;3.60;3.40;;;;;;;8.67;100.00;96634.31;6297856;22;20014;-61
2022/03/15 09:03:47;;;;;;;4.45;3.10;;;;;;;8.67;100.00;96642.19;6298527;22;20003;-60
2022/03/15 09:06:12;;;;;;;5.90;5.30;;;;;;;8.69;99.51;96658.66;6298928;22;19995;-61
2022/03/15 09:08:37;;;;;;;5.00;4.60;;;;;;;8.76;99.22;96664.31;6298035;22;20008;-61
2022/03/15 09:11:03;;;;;;;3.58;3.10;;;;;;;8.98;97.83;96664.50;6297699;22;20003;-60
2022/03/15 09:13:29;;;;;;;5.63;5.13;;;;;;;8.91;98.96;96668.53;6297094;22;20031;-60
2022/03/15 09:15:54;;;;;;;4.50;4.10;;;;;;;8.97;98.37;96665.44;6298765;22;20079;-61
2022/03/15 09:18:20;;;;;;;4.00;3.70;;;;;;;9.15;96.07;96665.09;6298412;22;20423;-60
2022/03/15 09:20:46;;;;;;;4.00;3.67;;;;;;;9.28;93.60;96638.78;6297502;22;20015;-60
2022/03/15 09:23:11;;;;;;;4.53;4.13;;;;;;;9.37;94.01;96632.84;6299003;22;20014;-60
2022/03/15 09:25:37;;;;;;;7.20;3.70;;;;;;;9.48;94.31;96652.28;6298816;22;20026;-60
2022/03/15 09:28:03;;;;;;;4.25;3.40;;;;;;;9.52;94.76;96633.56;6297862;22;20003;-60
2022/03/15 09:30:32;;;;;;;3.83;3.45;;;;;;;9.68;93.27;96635.88;6297764;22;20016;-60
2022/03/15 09:32:59;;;;;;;12.85;6.63;;;;;;;9.76;91.82;96648.47;6299554;22;20433;-60
2022/03/15 09:35:24;;;;;;;7.13;4.85;;;;;;;9.96;91.94;96641.72;6298759;22;20388;-60
2022/03/15 09:37:50;;;;;;;5.47;4.22;;;;;;;10.02;92.86;96628.09;6296602;22;20010;-60
2022/03/15 09:40:23;;;;;;;4.68;3.70;;;;;;;10.13;92.86;96619.38;6298715;22;20603;-60
2022/03/15 09:42:50;;;;;;;7.43;4.07;;;;;;;10.16;92.72;96636.75;6298987;22;20010;-60
2022/03/15 09:45:22;;;;;;;3.80;2.95;;;;;;;10.24;90.94;96631.75;6298565;22;20007;-60
2022/03/15 09:47:54;;;;;;;2.90;2.70;;;;;;;10.37;88.42;96626.38;6298908;22;20010;-60
2022/03/15 09:50:20;;;;;;;2.30;2.17;;;;;;;10.30;88.01;96625.16;6298681;22;20500;-60
2022/03/15 09:52:47;;;;;;;2.35;2.22;;;;;;;10.32;87.68;96610.94;6298769;22;20014;-60
2022/03/15 09:55:12;;;;;;;2.78;2.58;;;;;;;10.27;89.84;96617.50;6298726;22;20031;-60
2022/03/15 09:57:38;;;;;;;2.40;2.30;;;;;;;10.28;88.85;96613.94;6299106;22;20006;-60
2022/03/15 10:00:05;;;;;;;2.85;2.55;;;;;;;10.31;88.93;96605.78;6299517;22;20006;-60
2022/03/15 10:02:31;;;;;;;2.90;2.70;;;;;;;10.39;86.97;96611.31;6299901;22;20031;-61
2022/03/15 10:04:56;;;;;;;4.68;2.88;;;;;;;10.39;86.73;96592.03;6299944;22;20006;-60
2022/03/15 10:07:22;;;;;;;4.32;2.20;;;;;;;10.51;86.46;96582.38;6299917;22;20019;-61
2022/03/15 10:09:47;;;;;;;4.97;4.22;;;;;;;10.56;86.56;96591.59;6272665;22;20038;-60
2022/03/15 10:12:13;;;;;;;3.55;3.35;;;;;;;10.65;86.00;96586.56;6299889;22;20000;-61
2022/03/15 10:14:44;;;;;;;2.45;2.35;;;;;;;10.71;84.66;96586.06;6300032;22;20483;-60
2022/03/15 10:17:11;;;;;;;4.40;4.00;;;;;;;10.89;83.69;96589.91;6298226;22;19999;-60
2022/03/15 10:19:36;;;;;;;3.90;3.60;;;;;;;11.16;83.54;96586.03;6299389;22;20038;-60
2022/03/15 10:22:04;;;;;;;2.55;2.35;;;;;;;11.54;82.91;96583.88;6300248;22;20000;-61
2022/03/15 10:24:30;;;;;;;5.45;2.85;;;;;;;11.87;81.13;96574.13;6299815;22;20501;-61
2022/03/15 10:27:00;;;;;;;3.55;3.25;;;;;;;12.00;81.02;96578.38;6300194;22;20003;-60
2022/03/15 10:29:28;;;;;;;7.10;3.72;;;;;;;12.22;81.29;96587.16;6271479;22;20011;-60
2022/03/15 10:31:54;;;;;;;4.05;3.42;;;;;;;12.42;79.75;96580.16;6299902;22;20048;-60
2022/03/15 10:34:21;;;;;;;5.97;3.78;;;;;;;12.72;78.54;96568.75;6300425;22;19999;-60
2022/03/15 10:36:49;;;;;;;7.15;4.30;;;;;;;12.93;77.68;96569.63;6299984;22;19999;-61
2022/03/15 10:39:16;;;;;;;4.93;3.15;;;;;;;12.82;77.18;96568.78;6299342;22;20003;-60
2022/03/15 10:41:58;;;;;;;4.97;3.38;;;;;;;12.97;75.27;96563.13;6299690;22;20447;-61
2022/03/15 10:44:34;;;;;;;6.57;3.30;;;;;;;13.36;74.28;96557.88;6300291;22;20496;-60
2022/03/15 10:47:12;;;;;;;3.42;3.13;;;;;;;13.82;72.95;96549.44;6298880;22;20003;-60
2022/03/15 10:49:54;;;;;;;3.20;2.95;;;;;;;13.96;71.70;96537.56;6299345;22;20015;-61
2022/03/15 10:52:40;;;;;;;3.97;2.78;;;;;;;13.57;69.64;96530.47;6299562;22;20018;-60
2022/03/15 10:55:17;;;;;;;2.60;1.80;;;;;;;13.81;67.23;96540.63;6272172;22;20015;-61
2022/03/15 10:58:00;;;;;;;1.50;1.40;;;;;;;13.90;66.74;96536.31;6298962;22;20003;-61
2022/03/15 11:00:53;;;;;;;1.70;1.60;;;;;;;14.12;64.31;96527.19;6299281;22;20026;-61
2022/03/15 11:03:23;;;;;;;3.53;1.80;;;;;;;14.07;63.94;96520.69;6299750;22;20007;-61
2022/03/15 11:05:50;;;;;;;2.85;2.20;;;;;;;13.86;64.17;96524.34;6297288;22;20003;-60
2022/03/15 11:08:17;;;;;;;2.03;1.90;;;;;;;13.89;65.19;96519.59;6298098;22;20048;-60
2022/03/15 11:10:48;;;;;;;4.60;2.58;;;;;;;14.03;67.00;96515.66;6298380;22;20431;-59
2022/03/15 11:13:15;;;;;;;2.55;2.30;;;;;;;14.38;64.94;96517.78;6299468;22;20350;-59
2022/03/15 11:15:44;;;;;;;2.15;2.03;;;;;;;14.87;63.03;96510.44;6300029;22;20007;-59
2022/03/15 11:18:14;;;;;;;3.28;2.45;;;;;;;15.31;60.63;96504.44;6299430;22;20364;-59
2022/03/15 11:20:41;;;;;;;3.38;2.13;;;;;;;15.76;59.38;96499.97;6299528;22;20007;-59
2022/03/15 11:23:09;;;;;;;2.65;1.80;;;;;;;16.25;57.88;96496.03;6299886;22;20067;-59
2022/03/15 11:25:38;;;;;;;1.83;1.70;;;;;;;16.58;56.69;96490.84;6298693;22;20007;-60
2022/03/15 11:28:06;;;;;;;2.08;1.92;;;;;;;16.81;55.29;96484.13;6299327;22;20060;-59
2022/03/15 11:30:32;;;;;;;6.03;2.30;;;;;;;16.82;54.71;96489.25;6299024;22;20030;-59
2022/03/15 11:33:01;;;;;;;6.22;3.63;;;;;;;16.74;53.98;96471.44;6299847;22;20010;-59